Time,TemperatureF,DewpointF,PressureIn,WindDirection,WindDirectionDegrees,WindSpeedMPH,WindSpeedGustMPH,Humidity,HourlyPrecipIn,Conditions,Clouds,dailyrainin,SolarRadiationWatts/m^2,SoftwareType,DateUTC
2017-02-22 00:04:00,44.2,42.3,30.25,WSW,239,6.1,8.1,93,0.00,RA,,0.00,0.0,WeatherDisplay:10.37,2017-02-22 08:04:00,
2017-02-22 00:09:00,44.2,42.3,30.25,WSW,237,5.9,8.1,93,0.00,RA,,0.00,0.0,WeatherDisplay:10.37,2017-02-22 08:09:00,
2017-02-22 00:14:00,44.1,42.2,30.25,SW,226,7.2,9.2,93,0.00,CLR,,0.00,0.0,WeatherDisplay:10.37,2017-02-22 08:14:00,
2017-02-22 00:19:00,44.1,42.2,30.25,WSW,239,7.5,9.2,93,0.00,CLR,,0.00,0.0,WeatherDisplay:10.37,2017-02-22 08:19:00,
2017-02-22 00:24:00,44.2,42.3,30.25,WSW,245,7.3,9.2,93,0.00,CLR,,0.00,0.0,WeatherDisplay:10.37,2017-02-22 08:24:00,
2017-02-22 00:29:00,44.3,42.4,30.25,West,266,7.5,10.4,93,0.00,CLR,,0.00,0.0,WeatherDisplay:10.37,2017-02-22 08:29:00,
2017-02-22 00:34:00,44.4,42.5,30.25,WSW,243,5.7,8.1,93,0.00,CLR,,0.00,0.0,WeatherDisplay:10.37,2017-02-22 08:34:00,
2017-02-22 00:39:00,44.5,42.6,30.25,West,272,7.3,10.4,93,0.00,CLR,,0.00,0.0,WeatherDisplay:10.37,2017-02-22 08:39:00,
2017-02-22 00:44:00,44.5,42.3,30.25,WSW,252,8.6,11.5,92,0.00,CLR,,0.00,0.0,WeatherDisplay:10.37,2017-02-22 08:44:00,
2017-02-22 00:49:00,44.5,42.3,30.25,West,264,5.3,9.2,92,0.00,CLR,,0.00,0.0,WeatherDisplay:10.37,2017-02-22 08:49:00,
2017-02-22 00:54:00,44.6,42.4,30.25,SW,232,5.3,7.0,92,0.00,CLR,,0.00,0.0,WeatherDisplay:10.37,2017-02-22 08:54:00,
2017-02-22 00:59:00,44.5,42.3,30.25,SW,228,8.0,9.2,92,0.00,CLR,,0.00,0.0,WeatherDisplay:10.37,2017-02-22 08:59:00,
2017-02-22 01:04:00,44.3,42.1,30.25,SW,226,7.9,9.2,92,0.00,CLR,,0.00,0.0,WeatherDisplay:10.37,2017-02-22 09:04:00,
2017-02-22 01:09:00,44.2,42.0,30.25,SW,225,6.8,8.1,92,0.00,CLR,,0.00,0.0,WeatherDisplay:10.37,2017-02-22 09:09:00,
2017-02-22 01:14:00,44.1,41.9,30.25,SW,230,7.6,10.4,92,0.00,CLR,,0.00,0.0,WeatherDisplay:10.37,2017-02-22 09:14:00,
2017-02-22 01:19:00,44.0,41.8,30.25,WSW,245,7.6,9.2,92,0.00,CLR,,0.00,0.0,WeatherDisplay:10.37,2017-02-22 09:19:00,
2017-02-22 01:24:00,44.0,41.5,30.25,WSW,247,6.5,8.1,91,0.00,CLR,,0.00,0.0,WeatherDisplay:10.37,2017-02-22 09:24:00,
2017-02-22 01:29:00,43.9,41.4,30.25,West,265,7.3,9.2,91,0.00,CLR,,0.00,0.0,WeatherDisplay:10.37,2017-02-22 09:29:00,
2017-02-22 01:34:00,43.9,41.4,30.25,West,263,8.9,11.5,91,0.00,CLR,,0.00,0.0,WeatherDisplay:10.37,2017-02-22 09:34:00,
2017-02-22 01:39:00,44.0,41.5,30.25,West,266,9.0,11.5,91,0.00,CLR,,0.00,0.0,WeatherDisplay:10.37,2017-02-22 09:39:00,
2017-02-22 01:44:00,44.0,41.3,30.26,West,268,7.6,9.2,90,0.00,CLR,,0.00,0.0,WeatherDisplay:10.37,2017-02-22 09:44:00,
2017-02-22 01:49:00,44.0,41.0,30.26,WSW,248,7.9,10.4,89,0.00,CLR,,0.00,0.0,WeatherDisplay:10.37,2017-02-22 09:49:00,
2017-02-22 01:54:00,44.0,41.0,30.26,WSW,253,6.4,9.2,89,0.00,CLR,,0.00,0.0,WeatherDisplay:10.37,2017-02-22 09:54:00,
2017-02-22 01:59:00,43.8,40.8,30.25,WSW,250,6.8,9.0,89,0.00,CLR,,0.00,0.0,WeatherDisplay:10.37,2017-02-22 09:59:00,
2017-02-22 02:04:00,43.7,40.7,30.26,SW,231,5.7,7.0,89,0.00,CLR,,0.00,0.0,WeatherDisplay:10.37,2017-02-22 10:04:00,
2017-02-22 02:09:00,43.6,40.6,30.25,WSW,247,7.8,10.4,89,0.00,CLR,,0.00,0.0,WeatherDisplay:10.37,2017-02-22 10:09:00,
2017-02-22 02:14:00,43.5,40.5,30.25,WSW,249,8.0,10.4,89,0.00,CLR,,0.00,0.0,WeatherDisplay:10.37,2017-02-22 10:14:00,
2017-02-22 02:19:00,43.4,40.7,30.25,WSW,252,6.8,9.2,90,0.00,CLR,,0.00,0.0,WeatherDisplay:10.37,2017-02-22 10:19:00,
2017-02-22 02:24:00,43.4,40.7,30.25,SW,230,6.1,9.2,90,0.00,CLR,,0.00,0.0,WeatherDisplay:10.37,2017-02-22 10:24:00,
2017-02-22 02:29:00,43.4,40.7,30.25,SW,219,8.1,9.2,90,0.00,CLR,,0.00,0.0,WeatherDisplay:10.37,2017-02-22 10:29:00,
2017-02-22 02:34:00,43.4,40.7,30.25,SW,228,6.3,8.1,90,0.00,CLR,,0.00,0.0,WeatherDisplay:10.37,2017-02-22 10:34:00,
2017-02-22 02:39:00,43.5,40.8,30.25,West,268,7.9,11.5,90,0.00,CLR,,0.00,0.0,WeatherDisplay:10.37,2017-02-22 10:39:00,
2017-02-22 02:44:00,43.6,40.9,30.25,WSW,246,5.1,8.1,90,0.00,CLR,,0.00,0.0,WeatherDisplay:10.37,2017-02-22 10:44:00,
2017-02-22 02:49:00,43.6,40.9,30.25,SW,226,6.0,8.1,90,0.00,CLR,,0.00,0.0,WeatherDisplay:10.37,2017-02-22 10:49:00,
2017-02-22 02:54:00,43.6,40.9,30.25,SSW,212,5.2,8.1,90,0.00,CLR,,0.00,0.0,WeatherDisplay:10.37,2017-02-22 10:54:00,
2017-02-22 02:59:00,43.7,41.0,30.25,WSW,240,5.0,7.0,90,0.00,CLR,,0.00,0.0,WeatherDisplay:10.37,2017-02-22 10:59:00,
2017-02-22 03:04:00,43.7,41.0,30.25,WSW,249,4.1,8.1,90,0.00,CLR,,0.00,0.0,WeatherDisplay:10.37,2017-02-22 11:04:00,
2017-02-22 03:09:00,43.6,40.9,30.25,WSW,254,7.5,9.2,90,0.00,CLR,,0.00,0.0,WeatherDisplay:10.37,2017-02-22 11:09:00,
2017-02-22 03:14:00,43.7,41.0,30.25,West,262,7.2,9.2,90,0.00,CLR,,0.00,0.0,WeatherDisplay:10.37,2017-02-22 11:14:00,
2017-02-22 03:19:00,43.7,41.0,30.25,WSW,244,3.0,7.0,90,0.00,CLR,,0.00,0.0,WeatherDisplay:10.37,2017-02-22 11:19:00,
2017-02-22 03:24:00,43.6,40.9,30.25,SW,228,3.5,4.6,90,0.00,CLR,,0.00,0.0,WeatherDisplay:10.37,2017-02-22 11:24:00,
2017-02-22 03:29:00,43.6,40.9,30.25,WSW,254,2.6,4.6,90,0.00,CLR,,0.00,0.0,WeatherDisplay:10.37,2017-02-22 11:29:00,
2017-02-22 03:34:00,43.5,40.8,30.25,SW,234,5.3,6.9,90,0.00,CLR,,0.00,0.0,WeatherDisplay:10.37,2017-02-22 11:34:00,
2017-02-22 03:39:00,43.5,40.8,30.25,SW,230,4.0,5.0,90,0.00,CLR,,0.00,0.0,WeatherDisplay:10.37,2017-02-22 11:39:00,
2017-02-22 03:44:00,43.6,40.9,30.25,WSW,241,5.2,6.9,90,0.00,CLR,,0.00,0.0,WeatherDisplay:10.37,2017-02-22 11:44:00,
2017-02-22 03:49:00,43.7,41.0,30.25,WSW,250,4.3,8.1,90,0.00,CLR,,0.00,0.0,WeatherDisplay:10.37,2017-02-22 11:49:00,
2017-02-22 03:54:00,43.8,41.1,30.25,WSW,247,6.7,9.2,90,0.00,CLR,,0.00,0.0,WeatherDisplay:10.37,2017-02-22 11:54:00,
2017-02-22 03:59:00,44.0,41.3,30.25,West,268,3.7,5.8,90,0.00,CLR,,0.00,0.0,WeatherDisplay:10.37,2017-02-22 11:59:00,
2017-02-22 04:04:00,44.0,41.3,30.25,WNW,282,6.0,8.1,90,0.00,CLR,,0.00,0.0,WeatherDisplay:10.37,2017-02-22 12:04:00,
2017-02-22 04:09:00,44.1,41.4,30.25,West,280,5.0,6.9,90,0.00,CLR,,0.00,0.0,WeatherDisplay:10.37,2017-02-22 12:09:00,
2017-02-22 04:14:00,44.1,41.4,30.25,WSW,237,6.2,8.1,90,0.00,CLR,,0.00,0.0,WeatherDisplay:10.37,2017-02-22 12:14:00,
2017-02-22 04:19:00,44.1,41.4,30.25,West,267,7.2,8.1,90,0.00,CLR,,0.00,0.0,WeatherDisplay:10.37,2017-02-22 12:19:00,
2017-02-22 04:24:00,44.1,41.4,30.25,West,276,4.4,5.8,90,0.00,CLR,,0.00,0.0,WeatherDisplay:10.37,2017-02-22 12:24:00,
2017-02-22 04:29:00,44.1,41.4,30.25,West,260,4.7,6.9,90,0.00,CLR,,0.00,0.0,WeatherDisplay:10.37,2017-02-22 12:29:00,
2017-02-22 04:34:00,44.0,41.3,30.25,West,273,6.1,8.1,90,0.00,CLR,,0.00,0.0,WeatherDisplay:10.37,2017-02-22 12:34:00,
2017-02-22 04:39:00,44.0,41.3,30.25,West,275,7.9,11.5,90,0.00,CLR,,0.00,0.0,WeatherDisplay:10.37,2017-02-22 12:39:00,
2017-02-22 04:44:00,44.0,41.3,30.25,WNW,282,6.4,8.1,90,0.00,CLR,,0.00,0.0,WeatherDisplay:10.37,2017-02-22 12:44:00,
2017-02-22 04:49:00,44.0,41.3,30.25,WSW,241,5.1,6.9,90,0.00,CLR,,0.00,0.0,WeatherDisplay:10.37,2017-02-22 12:49:00,
2017-02-22 04:54:00,43.9,40.9,30.25,WSW,237,5.1,7.0,89,0.00,CLR,,0.00,0.0,WeatherDisplay:10.37,2017-02-22 12:54:00,
2017-02-22 04:59:00,43.7,40.7,30.25,WSW,249,5.5,6.9,89,0.00,CLR,,0.00,0.0,WeatherDisplay:10.37,2017-02-22 12:59:00,
2017-02-22 05:04:00,43.6,40.6,30.25,West,262,6.1,8.1,89,0.00,CLR,,0.00,0.0,WeatherDisplay:10.37,2017-02-22 13:04:00,
2017-02-22 05:09:00,43.4,40.7,30.25,SW,228,4.7,8.1,90,0.00,CLR,,0.00,0.0,WeatherDisplay:10.37,2017-02-22 13:09:00,
2017-02-22 05:14:00,43.3,40.3,30.25,WSW,254,6.3,8.1,89,0.00,CLR,,0.00,0.0,WeatherDisplay:10.37,2017-02-22 13:14:00,
2017-02-22 05:19:00,43.2,40.2,30.25,SW,223,6.8,8.1,89,0.00,CLR,,0.00,0.0,WeatherDisplay:10.37,2017-02-22 13:19:00,
2017-02-22 05:24:00,43.0,40.3,30.25,SW,232,6.3,8.1,90,0.00,CLR,,0.00,0.0,WeatherDisplay:10.37,2017-02-22 13:24:00,
2017-02-22 05:29:00,42.8,40.1,30.25,WSW,255,4.9,8.1,90,0.00,CLR,,0.00,0.0,WeatherDisplay:10.37,2017-02-22 13:29:00,
2017-02-22 05:34:00,42.7,39.7,30.25,WSW,239,6.8,9.2,89,0.00,CLR,,0.00,0.0,WeatherDisplay:10.37,2017-02-22 13:34:00,
2017-02-22 05:39:00,42.8,39.8,30.25,WSW,255,8.0,10.4,89,0.00,CLR,,0.00,0.0,WeatherDisplay:10.37,2017-02-22 13:39:00,
2017-02-22 05:44:00,42.9,40.2,30.25,West,275,8.7,10.4,90,0.00,CLR,,0.00,0.0,WeatherDisplay:10.37,2017-02-22 13:44:00,
2017-02-22 05:49:00,43.0,40.0,30.25,WSW,256,5.7,8.1,89,0.00,CLR,,0.00,0.0,WeatherDisplay:10.37,2017-02-22 13:49:00,
2017-02-22 05:54:00,43.1,40.1,30.25,West,274,5.1,8.1,89,0.00,CLR,,0.00,0.0,WeatherDisplay:10.37,2017-02-22 13:54:00,
2017-02-22 05:59:00,43.1,40.1,30.25,WSW,253,4.5,6.9,89,0.00,CLR,,0.00,0.0,WeatherDisplay:10.37,2017-02-22 13:59:00,
2017-02-22 06:04:00,43.0,40.0,30.25,WSW,252,3.7,5.8,89,0.00,CLR,,0.00,0.0,WeatherDisplay:10.37,2017-02-22 14:04:00,
2017-02-22 06:09:00,42.9,39.9,30.25,West,276,4.0,5.0,89,0.00,CLR,,0.00,0.0,WeatherDisplay:10.37,2017-02-22 14:09:00,
2017-02-22 06:14:00,42.9,39.9,30.25,WNW,284,3.2,4.6,89,0.00,CLR,,0.00,0.0,WeatherDisplay:10.37,2017-02-22 14:14:00,
2017-02-22 06:19:00,42.9,39.9,30.25,WNW,288,3.0,4.6,89,0.00,CLR,,0.00,0.0,WeatherDisplay:10.37,2017-02-22 14:19:00,
2017-02-22 06:24:00,42.9,39.9,30.25,West,269,3.9,4.6,89,0.00,CLR,,0.00,0.0,WeatherDisplay:10.37,2017-02-22 14:24:00,
2017-02-22 06:29:00,42.8,39.8,30.25,WNW,282,5.4,6.9,89,0.00,CLR,,0.00,0.0,WeatherDisplay:10.37,2017-02-22 14:29:00,
2017-02-22 06:34:00,42.8,40.1,30.25,WNW,288,4.3,5.8,90,0.00,CLR,,0.00,0.0,WeatherDisplay:10.37,2017-02-22 14:34:00,
2017-02-22 06:39:00,42.7,39.7,30.25,West,266,5.2,6.9,89,0.00,CLR,,0.00,0.0,WeatherDisplay:10.37,2017-02-22 14:39:00,
2017-02-22 06:44:00,42.6,39.9,30.25,West,274,3.6,4.6,90,0.00,CLR,,0.00,0.0,WeatherDisplay:10.37,2017-02-22 14:44:00,
2017-02-22 06:49:00,42.5,39.8,30.25,West,275,3.4,5.0,90,0.00,CLR,,0.00,0.0,WeatherDisplay:10.37,2017-02-22 14:49:00,
2017-02-22 06:54:00,42.5,39.8,30.25,West,272,4.3,5.0,90,0.00,CLR,,0.00,7.0,WeatherDisplay:10.37,2017-02-22 14:54:00,
2017-02-22 06:59:00,42.5,39.8,30.25,WSW,257,5.9,6.9,90,0.00,CLR,,0.00,9.0,WeatherDisplay:10.37,2017-02-22 14:59:00,
2017-02-22 07:04:00,42.4,39.7,30.25,WSW,245,4.8,5.8,90,0.00,CLR,,0.00,11.0,WeatherDisplay:10.37,2017-02-22 15:04:00,
2017-02-22 07:09:00,42.5,39.8,30.25,West,265,5.7,8.1,90,0.00,CLR,,0.00,12.0,WeatherDisplay:10.37,2017-02-22 15:09:00,
2017-02-22 07:14:00,42.6,39.9,30.25,West,264,6.3,8.1,90,0.00,CLR,,0.00,16.0,WeatherDisplay:10.37,2017-02-22 15:14:00,
2017-02-22 07:19:00,42.7,40.0,30.25,WSW,257,7.3,8.1,90,0.00,CLR,,0.00,18.0,WeatherDisplay:10.37,2017-02-22 15:19:00,
2017-02-22 07:24:00,42.8,40.1,30.25,West,261,4.8,6.9,90,0.00,CLR,,0.00,32.0,WeatherDisplay:10.37,2017-02-22 15:24:00,
2017-02-22 07:29:00,43.0,40.0,30.25,West,268,6.2,8.1,89,0.00,CLR,,0.00,47.0,WeatherDisplay:10.37,2017-02-22 15:29:00,
2017-02-22 07:34:00,43.3,40.3,30.25,West,264,6.4,8.1,89,0.00,CLR,,0.00,67.0,WeatherDisplay:10.37,2017-02-22 15:34:00,
2017-02-22 07:39:00,43.7,40.7,30.25,WSW,247,5.1,6.9,89,0.00,CLR,,0.00,91.0,WeatherDisplay:10.37,2017-02-22 15:39:00,
2017-02-22 07:44:00,44.1,40.8,30.25,SW,231,7.8,10.4,88,0.00,CLR,,0.00,116.0,WeatherDisplay:10.37,2017-02-22 15:44:00,
2017-02-22 07:49:00,44.6,41.3,30.25,SW,231,9.7,12.7,88,0.00,CLR,,0.00,137.0,WeatherDisplay:10.37,2017-02-22 15:49:00,
2017-02-22 07:54:00,45.0,41.4,30.25,WSW,243,8.8,11.5,87,0.00,CLR,,0.00,158.0,WeatherDisplay:10.37,2017-02-22 15:54:00,
2017-02-22 07:59:00,45.3,41.4,30.25,SW,234,9.5,11.0,86,0.00,CLR,,0.00,178.0,WeatherDisplay:10.37,2017-02-22 15:59:00,
2017-02-22 08:04:00,45.6,41.4,30.26,NW,320,2.9,9.2,85,0.00,CLR,,0.00,197.0,WeatherDisplay:10.37,2017-02-22 16:04:00,
2017-02-22 08:09:00,45.8,41.5,30.26,WSW,258,4.7,8.0,85,0.00,CLR,,0.00,213.0,WeatherDisplay:10.37,2017-02-22 16:09:00,
2017-02-22 08:14:00,46.0,41.7,30.26,WSW,258,5.7,8.0,85,0.00,CLR,,0.00,232.0,WeatherDisplay:10.37,2017-02-22 16:14:00,
2017-02-22 08:19:00,46.4,41.8,30.26,WSW,245,6.6,9.0,84,0.00,CLR,,0.00,251.0,WeatherDisplay:10.37,2017-02-22 16:19:00,
2017-02-22 08:24:00,46.7,41.8,30.26,West,268,6.0,8.1,83,0.00,CLR,,0.00,272.0,WeatherDisplay:10.37,2017-02-22 16:24:00,
2017-02-22 08:29:00,46.8,41.6,30.26,West,280,7.4,11.5,82,0.00,CLR,,0.00,294.0,WeatherDisplay:10.37,2017-02-22 16:29:00,
2017-02-22 08:34:00,46.7,41.2,30.26,WSW,257,6.8,11.5,81,0.00,CLR,,0.00,313.0,WeatherDisplay:10.37,2017-02-22 16:34:00,
2017-02-22 08:39:00,46.9,41.4,30.26,West,279,8.8,11.5,81,0.00,CLR,,0.00,330.0,WeatherDisplay:10.37,2017-02-22 16:39:00,
2017-02-22 08:44:00,47.0,41.1,30.27,WNW,299,9.5,12.7,80,0.00,CLR,,0.00,345.0,WeatherDisplay:10.37,2017-02-22 16:44:00,
2017-02-22 08:49:00,47.2,41.0,30.27,WNW,293,7.9,11.5,79,0.00,CLR,,0.00,367.0,WeatherDisplay:10.37,2017-02-22 16:49:00,
2017-02-22 08:54:00,47.3,41.1,30.27,WNW,291,8.3,11.5,79,0.00,CLR,,0.00,388.0,WeatherDisplay:10.37,2017-02-22 16:54:00,
2017-02-22 08:59:00,47.9,41.7,30.27,WNW,298,8.9,13.8,79,0.00,CLR,,0.00,403.0,WeatherDisplay:10.37,2017-02-22 16:59:00,
2017-02-22 09:04:00,48.6,42.0,30.27,West,280,9.7,12.0,78,0.00,CLR,,0.00,429.0,WeatherDisplay:10.37,2017-02-22 17:04:00,
2017-02-22 09:09:00,49.0,41.8,30.27,NW,304,6.0,10.4,76,0.00,CLR,,0.00,462.0,WeatherDisplay:10.37,2017-02-22 17:09:00,
2017-02-22 09:14:00,49.4,41.8,30.27,NW,310,5.8,9.2,75,0.00,CLR,,0.00,483.0,WeatherDisplay:10.37,2017-02-22 17:14:00,
2017-02-22 09:15:00,49.6,42.0,30.27,WNW,294,8.7,13.8,75,0.00,CLR,,0.00,499.0,WeatherDisplay:10.37,2017-02-22 17:15:00,
2017-02-22 09:20:00,50.1,42.8,30.27,WNW,289,9.3,12.0,76,0.00,CLR,,0.00,512.0,WeatherDisplay:10.37,2017-02-22 17:20:00,
2017-02-22 09:25:00,50.5,42.2,30.28,WNW,303,3.1,10.4,73,0.00,CLR,,0.00,561.0,WeatherDisplay:10.37,2017-02-22 17:25:00,
2017-02-22 09:30:00,51.0,42.3,30.28,West,276,5.9,9.2,72,0.00,CLR,,0.00,443.0,WeatherDisplay:10.37,2017-02-22 17:30:00,
2017-02-22 09:35:00,51.4,43.0,30.28,WNW,297,12.7,18.0,73,0.00,CLR,,0.00,200.0,WeatherDisplay:10.37,2017-02-22 17:35:00,
2017-02-22 09:40:00,51.4,41.9,30.28,NNW,334,8.1,16.1,70,0.00,CLR,,0.00,383.0,WeatherDisplay:10.37,2017-02-22 17:40:00,
2017-02-22 09:45:00,51.0,41.6,30.28,NW,307,11.6,18.4,70,0.00,CLR,,0.00,327.0,WeatherDisplay:10.37,2017-02-22 17:45:00,
2017-02-22 09:50:00,50.6,41.5,30.28,NW,318,10.3,14.0,71,0.00,CLR,,0.00,278.0,WeatherDisplay:10.37,2017-02-22 17:50:00,
2017-02-22 09:55:00,50.4,42.1,30.28,WNW,290,11.9,15.0,73,0.00,CLR,,0.00,148.0,WeatherDisplay:10.37,2017-02-22 17:55:00,
2017-02-22 10:00:00,50.0,41.3,30.28,NW,307,6.8,14.0,72,0.00,CLR,,0.00,190.0,WeatherDisplay:10.37,2017-02-22 18:00:00,
2017-02-22 10:05:00,49.6,40.9,30.27,NNW,327,7.8,16.1,72,0.00,CLR,,0.00,330.0,WeatherDisplay:10.37,2017-02-22 18:05:00,
2017-02-22 10:10:00,49.6,41.7,30.27,NNW,332,9.4,13.8,74,0.00,CLR,,0.00,373.0,WeatherDisplay:10.37,2017-02-22 18:10:00,
2017-02-22 10:15:00,49.6,41.7,30.27,NW,318,6.1,11.5,74,0.00,CLR,,0.00,545.0,WeatherDisplay:10.37,2017-02-22 18:15:00,
2017-02-22 10:20:00,49.9,42.3,30.27,WNW,303,9.0,12.7,75,0.00,CLR,,0.00,244.0,WeatherDisplay:10.37,2017-02-22 18:20:00,
2017-02-22 10:25:00,49.9,41.6,30.27,NW,318,8.0,12.7,73,0.00,CLR,,0.00,174.0,WeatherDisplay:10.37,2017-02-22 18:25:00,
2017-02-22 10:30:00,49.7,41.7,30.27,WNW,297,9.0,14.0,74,0.00,CLR,,0.00,163.0,WeatherDisplay:10.37,2017-02-22 18:30:00,
2017-02-22 10:35:00,49.4,41.1,30.27,WNW,282,12.4,18.4,73,0.00,CLR,,0.00,162.0,WeatherDisplay:10.37,2017-02-22 18:35:00,
2017-02-22 10:40:00,49.1,41.2,30.27,NW,306,12.5,17.3,74,0.00,CLR,,0.00,315.0,WeatherDisplay:10.37,2017-02-22 18:40:00,
2017-02-22 10:45:00,49.0,41.4,30.27,NW,309,10.0,11.0,75,0.00,CLR,,0.00,320.0,WeatherDisplay:10.37,2017-02-22 18:45:00,
2017-02-22 10:50:00,49.2,41.6,30.27,NW,322,12.3,17.3,75,0.00,CLR,,0.00,490.0,WeatherDisplay:10.37,2017-02-22 18:50:00,
2017-02-22 10:55:00,49.5,41.9,30.27,WNW,298,10.9,12.7,75,0.00,CLR,,0.00,482.0,WeatherDisplay:10.37,2017-02-22 18:55:00,
2017-02-22 11:00:00,49.9,41.6,30.27,NW,307,7.5,13.8,73,0.00,CLR,,0.00,251.0,WeatherDisplay:10.37,2017-02-22 19:00:00,
2017-02-22 11:05:00,50.2,42.2,30.27,WNW,288,11.1,13.8,74,0.00,CLR,,0.00,575.0,WeatherDisplay:10.37,2017-02-22 19:05:00,
2017-02-22 11:10:00,50.7,42.0,30.26,WNW,290,5.5,12.0,72,0.00,CLR,,0.00,559.0,WeatherDisplay:10.37,2017-02-22 19:10:00,
2017-02-22 11:15:00,51.4,42.7,30.26,West,280,10.1,13.8,72,0.00,CLR,,0.00,745.0,WeatherDisplay:10.37,2017-02-22 19:15:00,
2017-02-22 11:20:00,52.1,43.0,30.26,NNW,343,5.1,8.1,71,0.00,CLR,,0.00,190.0,WeatherDisplay:10.37,2017-02-22 19:20:00,
2017-02-22 11:25:00,52.1,42.6,30.26,NW,317,10.9,11.5,70,0.00,CLR,,0.00,302.0,WeatherDisplay:10.37,2017-02-22 19:25:00,
2017-02-22 11:30:00,51.8,41.6,30.26,WNW,282,7.7,11.5,68,0.00,CLR,,0.00,220.0,WeatherDisplay:10.37,2017-02-22 19:30:00,
2017-02-22 11:35:00,51.6,41.8,30.26,WNW,298,6.1,11.5,69,0.00,CLR,,0.00,264.0,WeatherDisplay:10.37,2017-02-22 19:35:00,
2017-02-22 11:40:00,51.7,41.9,30.25,WNW,292,5.0,6.9,69,0.00,CLR,,0.00,202.0,WeatherDisplay:10.37,2017-02-22 19:40:00,
2017-02-22 11:45:00,51.8,41.9,30.25,NW,305,8.8,11.5,69,0.00,CLR,,0.00,207.0,WeatherDisplay:10.37,2017-02-22 19:45:00,
2017-02-22 11:46:00,51.8,41.9,30.25,WNW,297,8.1,11.5,69,0.00,CLR,,0.00,207.0,WeatherDisplay:10.37,2017-02-22 19:46:00,
2017-02-22 11:51:00,51.8,41.9,30.25,WNW,297,8.5,11.5,69,0.00,CLR,,0.00,255.0,WeatherDisplay:10.37,2017-02-22 19:51:00,
2017-02-22 11:56:00,52.1,41.1,30.25,WNW,291,10.4,17.3,66,0.00,CLR,,0.00,682.0,WeatherDisplay:10.37,2017-02-22 19:56:00,
2017-02-22 12:01:00,52.5,40.3,30.25,WNW,283,14.0,17.3,63,0.00,CLR,,0.00,677.0,WeatherDisplay:10.37,2017-02-22 20:01:00,
2017-02-22 12:06:00,52.8,41.4,30.25,WNW,295,5.2,12.7,65,0.00,CLR,,0.00,833.0,WeatherDisplay:10.37,2017-02-22 20:06:00,
2017-02-22 12:11:00,53.3,40.2,30.24,NNW,342,5.3,11.5,61,0.00,CLR,,0.00,863.0,WeatherDisplay:10.37,2017-02-22 20:11:00,
2017-02-22 12:16:00,53.9,41.2,30.24,NW,304,7.7,11.5,62,0.00,CLR,,0.00,918.0,WeatherDisplay:10.37,2017-02-22 20:16:00,
2017-02-22 12:21:00,54.6,42.3,30.24,WNW,283,4.9,12.7,63,0.00,CLR,,0.00,870.0,WeatherDisplay:10.37,2017-02-22 20:21:00,
2017-02-22 12:26:00,55.1,41.9,30.23,WNW,300,5.9,11.5,61,0.00,CLR,,0.00,824.0,WeatherDisplay:10.37,2017-02-22 20:26:00,
2017-02-22 12:31:00,55.4,41.3,30.24,WNW,303,10.6,12.7,59,0.00,CLR,,0.00,415.0,WeatherDisplay:10.37,2017-02-22 20:31:00,
2017-02-22 12:36:00,55.4,41.7,30.23,WNW,297,9.1,13.8,60,0.00,CLR,,0.00,364.0,WeatherDisplay:10.37,2017-02-22 20:36:00,
2017-02-22 12:41:00,55.1,41.5,30.23,NW,305,7.6,16.1,60,0.00,CLR,,0.00,302.0,WeatherDisplay:10.37,2017-02-22 20:41:00,
2017-02-22 12:46:00,54.6,40.6,30.23,NNW,331,7.6,11.5,59,0.00,CLR,,0.00,403.0,WeatherDisplay:10.37,2017-02-22 20:46:00,
2017-02-22 12:51:00,54.0,40.8,30.22,NNW,345,8.1,15.0,61,0.00,CLR,,0.00,434.0,WeatherDisplay:10.37,2017-02-22 20:51:00,
2017-02-22 12:56:00,53.7,41.4,30.22,NW,317,12.0,18.4,63,0.00,CLR,,0.00,410.0,WeatherDisplay:10.37,2017-02-22 20:56:00,
2017-02-22 13:01:00,53.4,41.1,30.22,WNW,290,14.4,17.3,63,0.00,CLR,,0.00,489.0,WeatherDisplay:10.37,2017-02-22 21:01:00,
2017-02-22 13:06:00,53.3,41.4,30.22,NW,315,12.3,12.7,64,0.00,CLR,,0.00,357.0,WeatherDisplay:10.37,2017-02-22 21:06:00,
2017-02-22 13:11:00,53.1,40.0,30.22,WNW,290,14.0,15.0,61,0.00,CLR,,0.00,541.0,WeatherDisplay:10.37,2017-02-22 21:11:00,
2017-02-22 13:16:00,52.8,39.7,30.22,West,277,12.1,16.1,61,0.00,CLR,,0.00,482.0,WeatherDisplay:10.37,2017-02-22 21:16:00,
2017-02-22 13:21:00,52.6,41.2,30.22,WNW,292,8.1,15.0,65,0.00,CLR,,0.00,817.0,WeatherDisplay:10.37,2017-02-22 21:21:00,
2017-02-22 13:26:00,53.0,41.5,30.22,NW,308,8.7,13.8,65,0.00,CLR,,0.00,782.0,WeatherDisplay:10.37,2017-02-22 21:26:00,
2017-02-22 13:31:00,53.3,39.8,30.21,WNW,296,7.3,19.6,60,0.00,CLR,,0.00,772.0,WeatherDisplay:10.37,2017-02-22 21:31:00,
2017-02-22 13:36:00,53.4,39.0,30.21,West,279,11.7,15.0,58,0.00,CLR,,0.00,745.0,WeatherDisplay:10.37,2017-02-22 21:36:00,
2017-02-22 13:41:00,53.4,40.3,30.21,WSW,244,15.0,18.0,61,0.00,CLR,,0.00,793.0,WeatherDisplay:10.37,2017-02-22 21:41:00,
2017-02-22 13:46:00,53.5,40.4,30.21,West,273,8.5,13.8,61,0.00,CLR,,0.00,817.0,WeatherDisplay:10.37,2017-02-22 21:46:00,
2017-02-22 13:51:00,53.9,41.2,30.21,NW,309,11.1,19.6,62,0.00,CLR,,0.00,747.0,WeatherDisplay:10.37,2017-02-22 21:51:00,
2017-02-22 13:56:00,54.0,38.6,30.21,West,279,11.4,18.4,56,0.00,CLR,,0.00,179.0,WeatherDisplay:10.37,2017-02-22 21:56:00,
2017-02-22 14:01:00,53.4,38.5,30.21,West,278,12.3,18.4,57,0.00,CLR,,0.00,731.0,WeatherDisplay:10.37,2017-02-22 22:01:00,
2017-02-22 14:06:00,53.2,39.7,30.20,WSW,245,7.1,18.4,60,0.00,CLR,,0.00,691.0,WeatherDisplay:10.37,2017-02-22 22:06:00,
2017-02-22 14:11:00,53.3,38.9,30.20,WNW,300,11.9,18.4,58,0.00,CLR,,0.00,661.0,WeatherDisplay:10.37,2017-02-22 22:11:00,
2017-02-22 14:16:00,53.1,39.1,30.20,WNW,294,15.5,21.9,59,0.00,CLR,,0.00,657.0,WeatherDisplay:10.37,2017-02-22 22:16:00,
2017-02-22 14:21:00,53.2,39.7,30.20,WNW,297,12.5,21.9,60,0.00,CLR,,0.00,619.0,WeatherDisplay:10.37,2017-02-22 22:21:00,
2017-02-22 14:26:00,53.3,38.9,30.20,NW,307,14.8,16.0,58,0.00,CLR,,0.00,580.0,WeatherDisplay:10.37,2017-02-22 22:26:00,
2017-02-22 14:31:00,53.6,40.0,30.20,WNW,288,12.3,16.1,60,0.00,CLR,,0.00,633.0,WeatherDisplay:10.37,2017-02-22 22:31:00,
2017-02-22 14:36:00,53.9,40.3,30.20,WNW,282,13.1,14.0,60,0.00,CLR,,0.00,645.0,WeatherDisplay:10.37,2017-02-22 22:36:00,
2017-02-22 14:41:00,53.7,39.7,30.20,WNW,292,11.0,15.0,59,0.00,CLR,,0.00,666.0,WeatherDisplay:10.37,2017-02-22 22:41:00,
2017-02-22 14:46:00,53.2,39.2,30.20,WNW,288,12.0,17.3,59,0.00,CLR,,0.00,693.0,WeatherDisplay:10.37,2017-02-22 22:46:00,
2017-02-22 14:51:00,53.1,39.1,30.20,WNW,284,14.9,16.1,59,0.00,CLR,,0.00,608.0,WeatherDisplay:10.37,2017-02-22 22:51:00,
2017-02-22 14:56:00,52.7,38.8,30.20,West,278,14.4,19.6,59,0.00,CLR,,0.00,594.0,WeatherDisplay:10.37,2017-02-22 22:56:00,
2017-02-22 15:01:00,52.8,38.4,30.20,WNW,286,17.3,19.6,58,0.00,CLR,,0.00,237.0,WeatherDisplay:10.37,2017-02-22 23:01:00,
2017-02-22 15:06:00,52.1,38.2,30.20,WNW,295,14.4,18.4,59,0.00,CLR,,0.00,70.0,WeatherDisplay:10.37,2017-02-22 23:06:00,
2017-02-22 15:11:00,51.0,37.2,30.20,WNW,286,9.3,11.5,59,0.00,CLR,,0.00,95.0,WeatherDisplay:10.37,2017-02-22 23:11:00,
2017-02-22 15:16:00,50.8,39.1,30.20,WSW,237,12.1,16.1,64,0.00,CLR,,0.00,501.0,WeatherDisplay:10.37,2017-02-22 23:16:00,
2017-02-22 15:21:00,51.0,38.8,30.20,West,280,9.1,15.0,63,0.00,CLR,,0.00,499.0,WeatherDisplay:10.37,2017-02-22 23:21:00,
2017-02-22 15:26:00,51.4,39.2,30.20,West,269,17.2,23.0,63,0.00,CLR,,0.00,149.0,WeatherDisplay:10.37,2017-02-22 23:26:00,
2017-02-22 15:31:00,51.2,38.2,30.20,West,278,16.4,20.7,61,0.00,CLR,,0.00,56.0,WeatherDisplay:10.37,2017-02-22 23:31:00,